sensor_id;sensor_type;location;lat;lon;timestamp;P1;durP1;ratioP1;P2;durP2;ratioP2
19436;SDS011;9854;50.968;4.168;2023-05-19T00:00:01;16.90;;;7.70;;
19436;SDS011;9854;50.968;4.168;2023-05-19T00:02:28;13.68;;;7.47;;
19436;SDS011;9854;50.968;4.168;2023-05-19T00:05:00;11.52;;;7.22;;
19436;SDS011;9854;50.968;4.168;2023-05-19T00:07:28;14.13;;;8.32;;
19436;SDS011;9854;50.968;4.168;2023-05-19T00:09:56;10.37;;;7.90;;
19436;SDS011;9854;50.968;4.168;2023-05-19T00:12:22;15.60;;;8.70;;
19436;SDS011;9854;50.968;4.168;2023-05-19T00:14:48;11.40;;;7.63;;
19436;SDS011;9854;50.968;4.168;2023-05-19T00:17:14;10.73;;;7.60;;
19436;SDS011;9854;50.968;4.168;2023-05-19T00:19:40;12.88;;;6.95;;
19436;SDS011;9854;50.968;4.168;2023-05-19T00:22:09;11.10;;;7.13;;
19436;SDS011;9854;50.968;4.168;2023-05-19T00:24:35;8.93;;;7.45;;
19436;SDS011;9854;50.968;4.168;2023-05-19T00:27:00;16.13;;;8.18;;
19436;SDS011;9854;50.968;4.168;2023-05-19T00:29:26;14.10;;;7.75;;
19436;SDS011;9854;50.968;4.168;2023-05-19T00:31:52;14.45;;;7.13;;
19436;SDS011;9854;50.968;4.168;2023-05-19T00:34:18;14.83;;;7.97;;
19436;SDS011;9854;50.968;4.168;2023-05-19T00:36:43;9.07;;;6.80;;
19436;SDS011;9854;50.968;4.168;2023-05-19T00:39:09;13.88;;;8.05;;
19436;SDS011;9854;50.968;4.168;2023-05-19T00:41:35;11.15;;;7.30;;
19436;SDS011;9854;50.968;4.168;2023-05-19T00:44:00;14.80;;;6.90;;
19436;SDS011;9854;50.968;4.168;2023-05-19T00:46:26;11.90;;;8.38;;
19436;SDS011;9854;50.968;4.168;2023-05-19T00:48:52;14.35;;;7.68;;
19436;SDS011;9854;50.968;4.168;2023-05-19T00:51:17;19.73;;;9.05;;
19436;SDS011;9854;50.968;4.168;2023-05-19T00:53:43;13.32;;;9.07;;
19436;SDS011;9854;50.968;4.168;2023-05-19T00:56:13;16.35;;;9.98;;
19436;SDS011;9854;50.968;4.168;2023-05-19T00:58:39;16.02;;;8.95;;
19436;SDS011;9854;50.968;4.168;2023-05-19T01:01:05;22.25;;;9.73;;
19436;SDS011;9854;50.968;4.168;2023-05-19T01:03:32;14.65;;;9.52;;
19436;SDS011;9854;50.968;4.168;2023-05-19T01:06:00;17.45;;;9.40;;
19436;SDS011;9854;50.968;4.168;2023-05-19T01:08:30;11.73;;;8.98;;
19436;SDS011;9854;50.968;4.168;2023-05-19T01:10:56;14.68;;;10.60;;
19436;SDS011;9854;50.968;4.168;2023-05-19T01:13:22;16.67;;;10.10;;
19436;SDS011;9854;50.968;4.168;2023-05-19T01:16:03;13.40;;;10.10;;
19436;SDS011;9854;50.968;4.168;2023-05-19T01:24:30;16.60;;;10.73;;
19436;SDS011;9854;50.968;4.168;2023-05-19T01:32:59;19.73;;;11.60;;
19436;SDS011;9854;50.968;4.168;2023-05-19T01:35:27;22.03;;;12.03;;
19436;SDS011;9854;50.968;4.168;2023-05-19T01:37:55;19.10;;;11.10;;
19436;SDS011;9854;50.968;4.168;2023-05-19T01:40:23;17.57;;;10.63;;
19436;SDS011;9854;50.968;4.168;2023-05-19T01:42:51;17.23;;;11.20;;
19436;SDS011;9854;50.968;4.168;2023-05-19T01:45:18;15.70;;;11.87;;
19436;SDS011;9854;50.968;4.168;2023-05-19T01:47:45;24.20;;;12.10;;
19436;SDS011;9854;50.968;4.168;2023-05-19T01:50:12;16.97;;;12.23;;
19436;SDS011;9854;50.968;4.168;2023-05-19T01:52:38;18.87;;;12.57;;
19436;SDS011;9854;50.968;4.168;2023-05-19T01:55:04;17.87;;;12.53;;
19436;SDS011;9854;50.968;4.168;2023-05-19T02:07:07;19.23;;;13.43;;
19436;SDS011;9854;50.968;4.168;2023-05-19T02:12:10;21.80;;;13.80;;
19436;SDS011;9854;50.968;4.168;2023-05-19T02:17:20;19.47;;;13.60;;
19436;SDS011;9854;50.968;4.168;2023-05-19T02:19:49;19.33;;;13.80;;
19436;SDS011;9854;50.968;4.168;2023-05-19T02:22:15;17.97;;;12.67;;
19436;SDS011;9854;50.968;4.168;2023-05-19T02:24:41;19.27;;;13.23;;
19436;SDS011;9854;50.968;4.168;2023-05-19T02:27:08;19.50;;;14.03;;
19436;SDS011;9854;50.968;4.168;2023-05-19T02:29:34;21.37;;;13.43;;
19436;SDS011;9854;50.968;4.168;2023-05-19T02:32:00;20.30;;;13.23;;
19436;SDS011;9854;50.968;4.168;2023-05-19T02:34:26;17.80;;;12.53;;
19436;SDS011;9854;50.968;4.168;2023-05-19T02:36:51;14.00;;;11.73;;
19436;SDS011;9854;50.968;4.168;2023-05-19T02:39:17;21.47;;;13.53;;
19436;SDS011;9854;50.968;4.168;2023-05-19T02:41:43;17.13;;;12.07;;
19436;SDS011;9854;50.968;4.168;2023-05-19T02:44:08;17.77;;;12.17;;
19436;SDS011;9854;50.968;4.168;2023-05-19T02:46:34;20.67;;;11.80;;
19436;SDS011;9854;50.968;4.168;2023-05-19T02:49:00;14.10;;;12.67;;
19436;SDS011;9854;50.968;4.168;2023-05-19T02:51:25;14.93;;;12.13;;
19436;SDS011;9854;50.968;4.168;2023-05-19T02:53:51;20.07;;;12.80;;
19436;SDS011;9854;50.968;4.168;2023-05-19T02:56:16;15.47;;;11.60;;
19436;SDS011;9854;50.968;4.168;2023-05-19T02:58:42;17.80;;;12.10;;
19436;SDS011;9854;50.968;4.168;2023-05-19T03:01:08;16.30;;;11.80;;
19436;SDS011;9854;50.968;4.168;2023-05-19T03:03:35;16.80;;;12.00;;
19436;SDS011;9854;50.968;4.168;2023-05-19T03:06:00;15.17;;;11.20;;
19436;SDS011;9854;50.968;4.168;2023-05-19T03:08:26;12.90;;;11.70;;
19436;SDS011;9854;50.968;4.168;2023-05-19T03:10:52;18.87;;;13.00;;
19436;SDS011;9854;50.968;4.168;2023-05-19T03:13:18;17.60;;;12.93;;
19436;SDS011;9854;50.968;4.168;2023-05-19T03:15:43;18.17;;;12.30;;
19436;SDS011;9854;50.968;4.168;2023-05-19T03:18:09;12.70;;;11.20;;
19436;SDS011;9854;50.968;4.168;2023-05-19T03:20:36;15.30;;;11.07;;
19436;SDS011;9854;50.968;4.168;2023-05-19T03:23:02;19.43;;;12.23;;
19436;SDS011;9854;50.968;4.168;2023-05-19T03:25:27;16.53;;;11.10;;
19436;SDS011;9854;50.968;4.168;2023-05-19T03:27:54;15.93;;;11.17;;
19436;SDS011;9854;50.968;4.168;2023-05-19T03:30:19;16.03;;;11.60;;
19436;SDS011;9854;50.968;4.168;2023-05-19T03:32:46;13.63;;;11.33;;
19436;SDS011;9854;50.968;4.168;2023-05-19T03:35:11;22.20;;;12.13;;
19436;SDS011;9854;50.968;4.168;2023-05-19T03:37:37;19.73;;;12.40;;
19436;SDS011;9854;50.968;4.168;2023-05-19T03:40:03;18.40;;;12.30;;
19436;SDS011;9854;50.968;4.168;2023-05-19T03:42:29;19.13;;;12.40;;
19436;SDS011;9854;50.968;4.168;2023-05-19T03:44:55;18.20;;;12.70;;
19436;SDS011;9854;50.968;4.168;2023-05-19T03:47:21;17.03;;;13.13;;
19436;SDS011;9854;50.968;4.168;2023-05-19T03:49:47;19.37;;;12.50;;
19436;SDS011;9854;50.968;4.168;2023-05-19T03:52:12;21.80;;;13.03;;
19436;SDS011;9854;50.968;4.168;2023-05-19T03:54:39;18.80;;;13.33;;
19436;SDS011;9854;50.968;4.168;2023-05-19T03:57:07;18.90;;;12.87;;
19436;SDS011;9854;50.968;4.168;2023-05-19T03:59:33;18.87;;;12.03;;
19436;SDS011;9854;50.968;4.168;2023-05-19T04:02:01;19.77;;;12.30;;
19436;SDS011;9854;50.968;4.168;2023-05-19T04:04:27;20.20;;;12.80;;
19436;SDS011;9854;50.968;4.168;2023-05-19T04:06:53;22.90;;;12.03;;
19436;SDS011;9854;50.968;4.168;2023-05-19T04:09:18;19.77;;;12.20;;
19436;SDS011;9854;50.968;4.168;2023-05-19T04:11:44;17.20;;;12.43;;
19436;SDS011;9854;50.968;4.168;2023-05-19T04:14:10;21.83;;;12.50;;
19436;SDS011;9854;50.968;4.168;2023-05-19T04:16:35;16.13;;;12.13;;
19436;SDS011;9854;50.968;4.168;2023-05-19T04:19:01;16.93;;;12.07;;
19436;SDS011;9854;50.968;4.168;2023-05-19T04:21:27;18.33;;;12.70;;
19436;SDS011;9854;50.968;4.168;2023-05-19T04:23:53;19.90;;;12.87;;
19436;SDS011;9854;50.968;4.168;2023-05-19T04:26:18;22.17;;;13.43;;
19436;SDS011;9854;50.968;4.168;2023-05-19T04:28:46;14.33;;;12.20;;
19436;SDS011;9854;50.968;4.168;2023-05-19T04:31:12;13.37;;;11.40;;
19436;SDS011;9854;50.968;4.168;2023-05-19T04:33:41;22.40;;;12.73;;
19436;SDS011;9854;50.968;4.168;2023-05-19T04:36:07;14.67;;;12.17;;
19436;SDS011;9854;50.968;4.168;2023-05-19T04:38:37;17.13;;;11.90;;
19436;SDS011;9854;50.968;4.168;2023-05-19T04:41:04;14.13;;;12.13;;
19436;SDS011;9854;50.968;4.168;2023-05-19T04:43:30;19.13;;;12.57;;
19436;SDS011;9854;50.968;4.168;2023-05-19T04:45:56;16.90;;;12.37;;
19436;SDS011;9854;50.968;4.168;2023-05-19T04:48:22;16.83;;;11.53;;
19436;SDS011;9854;50.968;4.168;2023-05-19T04:50:48;13.07;;;11.67;;
19436;SDS011;9854;50.968;4.168;2023-05-19T04:53:15;14.40;;;11.30;;
19436;SDS011;9854;50.968;4.168;2023-05-19T04:55:42;27.57;;;12.13;;
19436;SDS011;9854;50.968;4.168;2023-05-19T04:58:08;20.70;;;12.17;;
19436;SDS011;9854;50.968;4.168;2023-05-19T05:00:35;21.30;;;11.73;;
19436;SDS011;9854;50.968;4.168;2023-05-19T05:03:01;17.73;;;11.20;;
19436;SDS011;9854;50.968;4.168;2023-05-19T05:05:31;15.90;;;11.57;;
19436;SDS011;9854;50.968;4.168;2023-05-19T05:07:57;18.33;;;12.50;;
19436;SDS011;9854;50.968;4.168;2023-05-19T05:10:22;18.97;;;11.40;;
19436;SDS011;9854;50.968;4.168;2023-05-19T05:12:49;18.40;;;11.33;;
19436;SDS011;9854;50.968;4.168;2023-05-19T05:15:15;17.13;;;11.07;;
19436;SDS011;9854;50.968;4.168;2023-05-19T05:17:41;14.30;;;10.30;;
19436;SDS011;9854;50.968;4.168;2023-05-19T05:20:07;20.53;;;11.60;;
19436;SDS011;9854;50.968;4.168;2023-05-19T05:22:34;14.43;;;11.03;;
19436;SDS011;9854;50.968;4.168;2023-05-19T05:25:00;13.67;;;10.83;;
19436;SDS011;9854;50.968;4.168;2023-05-19T05:27:26;19.00;;;10.63;;
19436;SDS011;9854;50.968;4.168;2023-05-19T05:29:52;14.10;;;10.93;;
19436;SDS011;9854;50.968;4.168;2023-05-19T05:32:18;14.87;;;10.70;;
19436;SDS011;9854;50.968;4.168;2023-05-19T05:34:43;16.67;;;10.48;;
19436;SDS011;9854;50.968;4.168;2023-05-19T05:37:09;19.33;;;10.43;;
19436;SDS011;9854;50.968;4.168;2023-05-19T05:39:35;15.93;;;10.25;;
19436;SDS011;9854;50.968;4.168;2023-05-19T05:42:00;13.73;;;10.40;;
19436;SDS011;9854;50.968;4.168;2023-05-19T05:44:26;14.05;;;10.45;;
19436;SDS011;9854;50.968;4.168;2023-05-19T05:46:52;21.38;;;10.23;;
19436;SDS011;9854;50.968;4.168;2023-05-19T05:49:18;13.88;;;11.05;;
19436;SDS011;9854;50.968;4.168;2023-05-19T05:51:44;20.90;;;10.63;;
19436;SDS011;9854;50.968;4.168;2023-05-19T05:54:10;18.45;;;10.73;;
19436;SDS011;9854;50.968;4.168;2023-05-19T05:56:37;15.50;;;10.77;;
19436;SDS011;9854;50.968;4.168;2023-05-19T05:59:03;21.08;;;10.98;;
19436;SDS011;9854;50.968;4.168;2023-05-19T06:01:29;13.10;;;10.15;;
19436;SDS011;9854;50.968;4.168;2023-05-19T06:03:55;15.48;;;10.18;;
19436;SDS011;9854;50.968;4.168;2023-05-19T06:06:21;14.95;;;10.82;;
19436;SDS011;9854;50.968;4.168;2023-05-19T06:08:46;12.07;;;9.95;;
19436;SDS011;9854;50.968;4.168;2023-05-19T06:11:12;12.23;;;10.02;;
19436;SDS011;9854;50.968;4.168;2023-05-19T06:13:38;20.45;;;10.65;;
19436;SDS011;9854;50.968;4.168;2023-05-19T06:16:05;16.02;;;10.57;;
19436;SDS011;9854;50.968;4.168;2023-05-19T06:18:31;12.20;;;9.85;;
19436;SDS011;9854;50.968;4.168;2023-05-19T06:20:57;14.02;;;10.32;;
19436;SDS011;9854;50.968;4.168;2023-05-19T06:23:23;16.98;;;10.80;;
19436;SDS011;9854;50.968;4.168;2023-05-19T06:25:50;20.52;;;10.52;;
19436;SDS011;9854;50.968;4.168;2023-05-19T06:28:16;18.67;;;10.23;;
19436;SDS011;9854;50.968;4.168;2023-05-19T06:30:42;16.73;;;10.05;;
19436;SDS011;9854;50.968;4.168;2023-05-19T06:33:07;15.90;;;9.48;;
19436;SDS011;9854;50.968;4.168;2023-05-19T06:35:33;12.75;;;10.50;;
19436;SDS011;9854;50.968;4.168;2023-05-19T06:37:58;18.95;;;10.63;;
19436;SDS011;9854;50.968;4.168;2023-05-19T06:40:24;13.93;;;10.05;;
19436;SDS011;9854;50.968;4.168;2023-05-19T06:42:50;14.32;;;10.13;;
19436;SDS011;9854;50.968;4.168;2023-05-19T06:45:15;18.77;;;10.50;;
19436;SDS011;9854;50.968;4.168;2023-05-19T06:47:45;16.30;;;10.07;;
19436;SDS011;9854;50.968;4.168;2023-05-19T06:50:11;18.13;;;10.48;;
19436;SDS011;9854;50.968;4.168;2023-05-19T06:52:37;18.55;;;9.57;;
19436;SDS011;9854;50.968;4.168;2023-05-19T06:55:02;13.52;;;9.25;;
19436;SDS011;9854;50.968;4.168;2023-05-19T06:57:28;13.40;;;9.38;;
19436;SDS011;9854;50.968;4.168;2023-05-19T06:59:54;14.75;;;9.75;;
19436;SDS011;9854;50.968;4.168;2023-05-19T07:02:19;14.20;;;9.88;;
19436;SDS011;9854;50.968;4.168;2023-05-19T07:04:45;17.02;;;9.77;;
19436;SDS011;9854;50.968;4.168;2023-05-19T07:07:11;17.55;;;9.98;;
19436;SDS011;9854;50.968;4.168;2023-05-19T07:09:37;14.35;;;9.60;;
19436;SDS011;9854;50.968;4.168;2023-05-19T07:12:03;15.20;;;9.30;;
19436;SDS011;9854;50.968;4.168;2023-05-19T07:14:29;18.02;;;9.85;;
19436;SDS011;9854;50.968;4.168;2023-05-19T07:16:55;15.38;;;9.65;;
19436;SDS011;9854;50.968;4.168;2023-05-19T07:19:21;16.35;;;9.68;;
19436;SDS011;9854;50.968;4.168;2023-05-19T07:21:47;18.35;;;10.20;;
19436;SDS011;9854;50.968;4.168;2023-05-19T07:24:13;19.88;;;10.40;;
19436;SDS011;9854;50.968;4.168;2023-05-19T07:26:39;21.63;;;10.27;;
19436;SDS011;9854;50.968;4.168;2023-05-19T07:29:06;12.65;;;9.30;;
19436;SDS011;9854;50.968;4.168;2023-05-19T07:31:32;14.73;;;9.27;;
19436;SDS011;9854;50.968;4.168;2023-05-19T07:33:58;14.13;;;9.20;;
19436;SDS011;9854;50.968;4.168;2023-05-19T07:36:23;17.52;;;9.38;;
19436;SDS011;9854;50.968;4.168;2023-05-19T07:38:49;16.50;;;9.95;;
19436;SDS011;9854;50.968;4.168;2023-05-19T07:41:15;10.40;;;8.90;;
19436;SDS011;9854;50.968;4.168;2023-05-19T07:43:41;12.80;;;8.63;;
19436;SDS011;9854;50.968;4.168;2023-05-19T07:46:06;16.45;;;9.05;;
19436;SDS011;9854;50.968;4.168;2023-05-19T07:48:32;12.10;;;9.40;;
19436;SDS011;9854;50.968;4.168;2023-05-19T07:50:58;14.52;;;9.25;;
19436;SDS011;9854;50.968;4.168;2023-05-19T07:53:23;17.20;;;9.25;;
19436;SDS011;9854;50.968;4.168;2023-05-19T07:55:49;8.68;;;7.15;;
19436;SDS011;9854;50.968;4.168;2023-05-19T07:58:15;13.55;;;9.57;;
19436;SDS011;9854;50.968;4.168;2023-05-19T08:00:41;11.73;;;8.45;;
19436;SDS011;9854;50.968;4.168;2023-05-19T08:03:07;14.38;;;7.88;;
19436;SDS011;9854;50.968;4.168;2023-05-19T08:05:34;13.90;;;8.95;;
19436;SDS011;9854;50.968;4.168;2023-05-19T08:08:00;15.10;;;8.45;;
19436;SDS011;9854;50.968;4.168;2023-05-19T08:10:26;16.15;;;10.15;;
19436;SDS011;9854;50.968;4.168;2023-05-19T08:12:52;16.58;;;9.18;;
19436;SDS011;9854;50.968;4.168;2023-05-19T08:15:18;12.45;;;8.40;;
19436;SDS011;9854;50.968;4.168;2023-05-19T08:17:44;11.93;;;9.13;;
19436;SDS011;9854;50.968;4.168;2023-05-19T08:20:10;13.48;;;8.68;;
19436;SDS011;9854;50.968;4.168;2023-05-19T08:22:36;12.60;;;8.38;;
19436;SDS011;9854;50.968;4.168;2023-05-19T08:25:02;13.43;;;8.73;;
19436;SDS011;9854;50.968;4.168;2023-05-19T08:27:31;13.20;;;8.82;;
19436;SDS011;9854;50.968;4.168;2023-05-19T08:29:57;14.48;;;8.13;;
19436;SDS011;9854;50.968;4.168;2023-05-19T08:32:23;20.27;;;10.30;;
19436;SDS011;9854;50.968;4.168;2023-05-19T08:34:49;13.25;;;9.63;;
19436;SDS011;9854;50.968;4.168;2023-05-19T08:37:14;13.07;;;9.50;;
19436;SDS011;9854;50.968;4.168;2023-05-19T08:39:40;16.67;;;8.98;;
19436;SDS011;9854;50.968;4.168;2023-05-19T08:42:06;16.73;;;9.38;;
19436;SDS011;9854;50.968;4.168;2023-05-19T08:44:33;20.42;;;9.77;;
19436;SDS011;9854;50.968;4.168;2023-05-19T08:47:02;13.52;;;8.98;;
19436;SDS011;9854;50.968;4.168;2023-05-19T08:49:36;17.08;;;8.65;;
19436;SDS011;9854;50.968;4.168;2023-05-19T08:52:16;16.85;;;8.70;;
19436;SDS011;9854;50.968;4.168;2023-05-19T08:54:45;9.35;;;7.38;;
19436;SDS011;9854;50.968;4.168;2023-05-19T08:57:17;12.73;;;7.88;;
19436;SDS011;9854;50.968;4.168;2023-05-19T08:59:43;13.15;;;8.55;;
19436;SDS011;9854;50.968;4.168;2023-05-19T09:02:09;11.50;;;7.88;;
19436;SDS011;9854;50.968;4.168;2023-05-19T09:04:37;13.88;;;6.97;;
19436;SDS011;9854;50.968;4.168;2023-05-19T09:07:04;9.65;;;7.30;;
19436;SDS011;9854;50.968;4.168;2023-05-19T09:09:30;12.38;;;7.47;;
19436;SDS011;9854;50.968;4.168;2023-05-19T09:11:55;9.93;;;7.18;;
19436;SDS011;9854;50.968;4.168;2023-05-19T09:14:22;13.10;;;7.78;;
19436;SDS011;9854;50.968;4.168;2023-05-19T09:16:47;11.52;;;6.97;;
19436;SDS011;9854;50.968;4.168;2023-05-19T09:19:16;14.18;;;7.50;;
19436;SDS011;9854;50.968;4.168;2023-05-19T09:21:42;15.65;;;7.53;;
19436;SDS011;9854;50.968;4.168;2023-05-19T09:24:09;11.32;;;7.22;;
19436;SDS011;9854;50.968;4.168;2023-05-19T09:26:38;11.63;;;7.20;;
19436;SDS011;9854;50.968;4.168;2023-05-19T09:29:12;14.32;;;7.30;;
19436;SDS011;9854;50.968;4.168;2023-05-19T09:31:45;9.10;;;5.65;;
19436;SDS011;9854;50.968;4.168;2023-05-19T09:34:15;11.05;;;6.47;;
19436;SDS011;9854;50.968;4.168;2023-05-19T09:36:41;8.73;;;5.15;;
19436;SDS011;9854;50.968;4.168;2023-05-19T09:39:17;10.10;;;5.80;;
19436;SDS011;9854;50.968;4.168;2023-05-19T09:41:43;11.80;;;5.22;;
19436;SDS011;9854;50.968;4.168;2023-05-19T09:44:13;9.65;;;5.28;;
19436;SDS011;9854;50.968;4.168;2023-05-19T09:46:53;11.68;;;4.32;;
19436;SDS011;9854;50.968;4.168;2023-05-19T09:49:19;8.32;;;4.38;;
19436;SDS011;9854;50.968;4.168;2023-05-19T09:51:47;11.23;;;4.40;;
19436;SDS011;9854;50.968;4.168;2023-05-19T09:54:15;7.90;;;4.32;;
19436;SDS011;9854;50.968;4.168;2023-05-19T09:56:41;10.18;;;3.70;;
19436;SDS011;9854;50.968;4.168;2023-05-19T09:59:07;10.20;;;3.95;;
19436;SDS011;9854;50.968;4.168;2023-05-19T10:01:32;8.43;;;5.05;;
19436;SDS011;9854;50.968;4.168;2023-05-19T10:04:00;11.40;;;4.65;;
19436;SDS011;9854;50.968;4.168;2023-05-19T10:06:27;7.07;;;2.85;;
19436;SDS011;9854;50.968;4.168;2023-05-19T10:08:53;7.82;;;3.08;;
19436;SDS011;9854;50.968;4.168;2023-05-19T10:11:19;8.88;;;3.78;;
19436;SDS011;9854;50.968;4.168;2023-05-19T10:13:47;13.05;;;3.90;;
19436;SDS011;9854;50.968;4.168;2023-05-19T10:16:15;12.18;;;3.22;;
19436;SDS011;9854;50.968;4.168;2023-05-19T10:18:42;11.35;;;3.63;;
19436;SDS011;9854;50.968;4.168;2023-05-19T10:21:08;9.35;;;3.88;;
19436;SDS011;9854;50.968;4.168;2023-05-19T10:23:36;10.82;;;3.90;;
19436;SDS011;9854;50.968;4.168;2023-05-19T10:26:02;10.85;;;3.85;;
19436;SDS011;9854;50.968;4.168;2023-05-19T10:28:33;6.70;;;3.63;;
19436;SDS011;9854;50.968;4.168;2023-05-19T10:31:01;6.72;;;3.42;;
19436;SDS011;9854;50.968;4.168;2023-05-19T10:33:38;6.32;;;3.08;;
19436;SDS011;9854;50.968;4.168;2023-05-19T10:36:43;8.85;;;3.95;;
19436;SDS011;9854;50.968;4.168;2023-05-19T10:41:52;6.78;;;3.53;;
19436;SDS011;9854;50.968;4.168;2023-05-19T10:47:33;10.73;;;4.15;;
19436;SDS011;9854;50.968;4.168;2023-05-19T10:49:59;21.63;;;5.03;;
19436;SDS011;9854;50.968;4.168;2023-05-19T10:52:25;9.68;;;3.88;;
19436;SDS011;9854;50.968;4.168;2023-05-19T10:54:53;10.52;;;4.22;;
19436;SDS011;9854;50.968;4.168;2023-05-19T10:57:24;9.88;;;4.13;;
19436;SDS011;9854;50.968;4.168;2023-05-19T10:59:52;7.55;;;3.47;;
19436;SDS011;9854;50.968;4.168;2023-05-19T11:05:08;12.60;;;4.30;;
19436;SDS011;9854;50.968;4.168;2023-05-19T11:07:42;7.05;;;3.83;;
19436;SDS011;9854;50.968;4.168;2023-05-19T11:10:08;5.43;;;3.30;;
19436;SDS011;9854;50.968;4.168;2023-05-19T11:12:41;11.77;;;3.22;;
19436;SDS011;9854;50.968;4.168;2023-05-19T11:15:10;5.88;;;3.20;;
19436;SDS011;9854;50.968;4.168;2023-05-19T11:17:38;7.00;;;3.17;;
19436;SDS011;9854;50.968;4.168;2023-05-19T11:20:06;8.50;;;3.20;;
19436;SDS011;9854;50.968;4.168;2023-05-19T11:22:34;11.35;;;4.15;;
19436;SDS011;9854;50.968;4.168;2023-05-19T11:25:01;8.88;;;4.20;;
19436;SDS011;9854;50.968;4.168;2023-05-19T11:27:31;8.13;;;3.40;;
19436;SDS011;9854;50.968;4.168;2023-05-19T11:29:58;11.80;;;3.65;;
19436;SDS011;9854;50.968;4.168;2023-05-19T11:32:29;7.68;;;2.80;;
19436;SDS011;9854;50.968;4.168;2023-05-19T11:34:57;8.48;;;3.67;;
19436;SDS011;9854;50.968;4.168;2023-05-19T11:37:24;7.75;;;3.30;;
19436;SDS011;9854;50.968;4.168;2023-05-19T11:39:50;11.70;;;3.20;;
19436;SDS011;9854;50.968;4.168;2023-05-19T11:42:16;9.52;;;3.58;;
19436;SDS011;9854;50.968;4.168;2023-05-19T11:44:43;7.72;;;3.53;;
19436;SDS011;9854;50.968;4.168;2023-05-19T11:47:12;12.50;;;3.80;;
19436;SDS011;9854;50.968;4.168;2023-05-19T11:49:42;5.70;;;2.92;;
19436;SDS011;9854;50.968;4.168;2023-05-19T11:52:20;4.75;;;2.97;;
19436;SDS011;9854;50.968;4.168;2023-05-19T11:54:47;7.88;;;2.95;;
19436;SDS011;9854;50.968;4.168;2023-05-19T11:57:13;8.35;;;3.00;;
19436;SDS011;9854;50.968;4.168;2023-05-19T11:59:38;11.90;;;3.35;;
19436;SDS011;9854;50.968;4.168;2023-05-19T12:02:14;12.95;;;3.85;;
19436;SDS011;9854;50.968;4.168;2023-05-19T12:04:40;6.25;;;2.85;;
19436;SDS011;9854;50.968;4.168;2023-05-19T12:07:06;10.30;;;3.13;;
19436;SDS011;9854;50.968;4.168;2023-05-19T12:09:32;10.20;;;3.42;;
19436;SDS011;9854;50.968;4.168;2023-05-19T12:11:57;10.65;;;3.30;;
19436;SDS011;9854;50.968;4.168;2023-05-19T12:14:24;7.20;;;3.53;;
19436;SDS011;9854;50.968;4.168;2023-05-19T12:16:58;10.23;;;3.10;;
19436;SDS011;9854;50.968;4.168;2023-05-19T12:19:33;6.15;;;3.28;;
19436;SDS011;9854;50.968;4.168;2023-05-19T12:21:59;7.25;;;3.35;;
19436;SDS011;9854;50.968;4.168;2023-05-19T12:24:25;5.32;;;2.72;;
19436;SDS011;9854;50.968;4.168;2023-05-19T12:26:51;6.60;;;3.03;;
19436;SDS011;9854;50.968;4.168;2023-05-19T12:29:16;5.75;;;3.00;;
19436;SDS011;9854;50.968;4.168;2023-05-19T12:31:42;8.18;;;3.55;;
19436;SDS011;9854;50.968;4.168;2023-05-19T12:34:11;9.85;;;2.88;;
19436;SDS011;9854;50.968;4.168;2023-05-19T12:36:37;11.80;;;2.85;;
19436;SDS011;9854;50.968;4.168;2023-05-19T12:39:04;12.40;;;3.67;;
19436;SDS011;9854;50.968;4.168;2023-05-19T12:41:30;5.85;;;3.17;;
19436;SDS011;9854;50.968;4.168;2023-05-19T12:43:56;9.10;;;3.10;;
19436;SDS011;9854;50.968;4.168;2023-05-19T12:46:21;6.85;;;3.72;;
19436;SDS011;9854;50.968;4.168;2023-05-19T12:48:47;10.55;;;3.63;;
19436;SDS011;9854;50.968;4.168;2023-05-19T12:51:16;7.88;;;2.50;;
19436;SDS011;9854;50.968;4.168;2023-05-19T12:53:42;11.93;;;3.65;;
19436;SDS011;9854;50.968;4.168;2023-05-19T12:56:12;6.70;;;2.70;;
19436;SDS011;9854;50.968;4.168;2023-05-19T12:58:39;6.78;;;2.58;;
19436;SDS011;9854;50.968;4.168;2023-05-19T13:01:14;14.27;;;3.33;;
19436;SDS011;9854;50.968;4.168;2023-05-19T13:03:41;9.35;;;2.70;;
19436;SDS011;9854;50.968;4.168;2023-05-19T13:06:07;12.38;;;3.05;;
19436;SDS011;9854;50.968;4.168;2023-05-19T13:08:34;7.30;;;2.80;;
19436;SDS011;9854;50.968;4.168;2023-05-19T13:11:00;8.85;;;2.70;;
19436;SDS011;9854;50.968;4.168;2023-05-19T13:13:26;6.47;;;2.75;;
19436;SDS011;9854;50.968;4.168;2023-05-19T13:15:54;4.88;;;2.60;;
19436;SDS011;9854;50.968;4.168;2023-05-19T13:18:20;5.68;;;2.60;;
19436;SDS011;9854;50.968;4.168;2023-05-19T13:20:46;10.82;;;2.83;;
19436;SDS011;9854;50.968;4.168;2023-05-19T13:23:14;6.95;;;2.78;;
19436;SDS011;9854;50.968;4.168;2023-05-19T13:25:40;6.57;;;2.30;;
19436;SDS011;9854;50.968;4.168;2023-05-19T13:28:06;8.18;;;3.13;;
19436;SDS011;9854;50.968;4.168;2023-05-19T13:30:32;10.63;;;2.92;;
19436;SDS011;9854;50.968;4.168;2023-05-19T13:32:58;10.10;;;2.70;;
19436;SDS011;9854;50.968;4.168;2023-05-19T13:35:24;6.78;;;2.40;;
19436;SDS011;9854;50.968;4.168;2023-05-19T13:37:50;5.43;;;2.30;;
19436;SDS011;9854;50.968;4.168;2023-05-19T13:40:16;9.60;;;2.95;;
19436;SDS011;9854;50.968;4.168;2023-05-19T13:42:41;11.95;;;2.70;;
19436;SDS011;9854;50.968;4.168;2023-05-19T13:45:07;5.32;;;2.85;;
19436;SDS011;9854;50.968;4.168;2023-05-19T13:47:34;6.30;;;2.72;;
19436;SDS011;9854;50.968;4.168;2023-05-19T13:50:01;11.50;;;3.05;;
19436;SDS011;9854;50.968;4.168;2023-05-19T13:52:28;6.55;;;2.63;;
19436;SDS011;9854;50.968;4.168;2023-05-19T13:54:53;10.75;;;2.90;;
19436;SDS011;9854;50.968;4.168;2023-05-19T13:57:20;10.07;;;2.92;;
19436;SDS011;9854;50.968;4.168;2023-05-19T13:59:47;7.70;;;2.67;;
19436;SDS011;9854;50.968;4.168;2023-05-19T14:02:13;8.98;;;2.88;;
19436;SDS011;9854;50.968;4.168;2023-05-19T14:04:38;7.13;;;2.78;;
19436;SDS011;9854;50.968;4.168;2023-05-19T14:07:04;5.93;;;2.20;;
19436;SDS011;9854;50.968;4.168;2023-05-19T14:09:31;10.57;;;2.67;;
19436;SDS011;9854;50.968;4.168;2023-05-19T14:11:57;5.75;;;2.33;;
19436;SDS011;9854;50.968;4.168;2023-05-19T14:14:23;5.53;;;2.28;;
19436;SDS011;9854;50.968;4.168;2023-05-19T14:16:49;7.07;;;2.33;;
19436;SDS011;9854;50.968;4.168;2023-05-19T14:19:14;6.00;;;2.47;;
19436;SDS011;9854;50.968;4.168;2023-05-19T14:21:40;4.93;;;2.63;;
19436;SDS011;9854;50.968;4.168;2023-05-19T14:24:06;12.85;;;2.42;;
19436;SDS011;9854;50.968;4.168;2023-05-19T14:26:32;5.40;;;2.00;;
19436;SDS011;9854;50.968;4.168;2023-05-19T14:28:57;7.93;;;2.17;;
19436;SDS011;9854;50.968;4.168;2023-05-19T14:31:23;8.90;;;2.42;;
19436;SDS011;9854;50.968;4.168;2023-05-19T14:33:49;8.45;;;2.78;;
19436;SDS011;9854;50.968;4.168;2023-05-19T14:36:15;4.70;;;2.10;;
19436;SDS011;9854;50.968;4.168;2023-05-19T14:38:41;11.68;;;2.50;;
19436;SDS011;9854;50.968;4.168;2023-05-19T14:41:07;4.97;;;2.13;;
19436;SDS011;9854;50.968;4.168;2023-05-19T14:43:32;11.82;;;2.15;;
19436;SDS011;9854;50.968;4.168;2023-05-19T14:45:58;7.10;;;2.55;;
19436;SDS011;9854;50.968;4.168;2023-05-19T14:48:23;7.95;;;2.60;;
19436;SDS011;9854;50.968;4.168;2023-05-19T14:50:49;5.50;;;2.15;;
19436;SDS011;9854;50.968;4.168;2023-05-19T14:53:15;8.15;;;2.45;;
19436;SDS011;9854;50.968;4.168;2023-05-19T14:55:41;6.53;;;2.00;;
19436;SDS011;9854;50.968;4.168;2023-05-19T14:58:07;4.10;;;1.67;;
19436;SDS011;9854;50.968;4.168;2023-05-19T15:00:33;4.38;;;1.83;;
19436;SDS011;9854;50.968;4.168;2023-05-19T15:02:59;2.25;;;1.50;;
19436;SDS011;9854;50.968;4.168;2023-05-19T15:05:24;4.80;;;2.55;;
19436;SDS011;9854;50.968;4.168;2023-05-19T15:07:50;7.13;;;2.35;;
19436;SDS011;9854;50.968;4.168;2023-05-19T15:10:16;5.18;;;2.30;;
19436;SDS011;9854;50.968;4.168;2023-05-19T15:12:45;5.10;;;1.88;;
19436;SDS011;9854;50.968;4.168;2023-05-19T15:15:11;12.45;;;2.13;;
19436;SDS011;9854;50.968;4.168;2023-05-19T15:17:37;4.20;;;1.73;;